sensor_id;sensor_type;location;lat;lon;timestamp;P1;durP1;ratioP1;P2;durP2;ratioP2
35456;SDS011;21575;51.538;-0.084;2022-09-09T00:00:22;11.40;;;4.60;;
35456;SDS011;21575;51.538;-0.084;2022-09-09T00:05:53;6.70;;;3.40;;
35456;SDS011;21575;51.538;-0.084;2022-09-09T00:08:25;9.43;;;4.10;;
35456;SDS011;21575;51.538;-0.084;2022-09-09T00:11:09;9.35;;;4.30;;
35456;SDS011;21575;51.538;-0.084;2022-09-09T00:13:48;8.77;;;4.18;;
35456;SDS011;21575;51.538;-0.084;2022-09-09T00:16:27;7.07;;;3.28;;
35456;SDS011;21575;51.538;-0.084;2022-09-09T00:19:01;10.30;;;3.38;;
35456;SDS011;21575;51.538;-0.084;2022-09-09T00:21:33;9.00;;;3.45;;
35456;SDS011;21575;51.538;-0.084;2022-09-09T00:24:11;8.38;;;2.85;;
35456;SDS011;21575;51.538;-0.084;2022-09-09T00:26:51;14.50;;;4.55;;
35456;SDS011;21575;51.538;-0.084;2022-09-09T00:32:14;8.50;;;4.05;;
35456;SDS011;21575;51.538;-0.084;2022-09-09T00:34:48;7.20;;;3.13;;
35456;SDS011;21575;51.538;-0.084;2022-09-09T00:37:18;8.93;;;3.42;;
35456;SDS011;21575;51.538;-0.084;2022-09-09T00:39:45;6.53;;;3.85;;
35456;SDS011;21575;51.538;-0.084;2022-09-09T00:42:20;11.55;;;3.65;;
35456;SDS011;21575;51.538;-0.084;2022-09-09T00:55:48;8.18;;;3.22;;
35456;SDS011;21575;51.538;-0.084;2022-09-09T00:58:30;7.55;;;2.67;;
35456;SDS011;21575;51.538;-0.084;2022-09-09T01:00:58;9.52;;;3.67;;
35456;SDS011;21575;51.538;-0.084;2022-09-09T01:03:35;7.03;;;3.20;;
35456;SDS011;21575;51.538;-0.084;2022-09-09T01:08:59;5.20;;;2.53;;
35456;SDS011;21575;51.538;-0.084;2022-09-09T01:16:56;7.43;;;3.50;;
35456;SDS011;21575;51.538;-0.084;2022-09-09T01:19:49;7.13;;;3.58;;
35456;SDS011;21575;51.538;-0.084;2022-09-09T01:25:19;6.82;;;3.47;;
35456;SDS011;21575;51.538;-0.084;2022-09-09T01:28:05;8.95;;;5.03;;
35456;SDS011;21575;51.538;-0.084;2022-09-09T01:30:37;9.77;;;3.58;;
35456;SDS011;21575;51.538;-0.084;2022-09-09T01:33:04;7.75;;;3.45;;
35456;SDS011;21575;51.538;-0.084;2022-09-09T01:38:21;8.07;;;3.10;;
35456;SDS011;21575;51.538;-0.084;2022-09-09T01:40:47;5.55;;;3.42;;
35456;SDS011;21575;51.538;-0.084;2022-09-09T01:43:14;9.68;;;3.33;;
35456;SDS011;21575;51.538;-0.084;2022-09-09T01:45:39;5.22;;;2.25;;
35456;SDS011;21575;51.538;-0.084;2022-09-09T01:48:07;7.10;;;2.40;;
35456;SDS011;21575;51.538;-0.084;2022-09-09T01:50:32;6.72;;;2.78;;
35456;SDS011;21575;51.538;-0.084;2022-09-09T01:52:59;7.00;;;2.80;;
35456;SDS011;21575;51.538;-0.084;2022-09-09T01:55:33;5.45;;;2.90;;
35456;SDS011;21575;51.538;-0.084;2022-09-09T01:58:13;8.95;;;3.20;;
35456;SDS011;21575;51.538;-0.084;2022-09-09T02:00:55;5.53;;;3.00;;
35456;SDS011;21575;51.538;-0.084;2022-09-09T02:03:31;7.20;;;3.90;;
35456;SDS011;21575;51.538;-0.084;2022-09-09T02:08:33;9.52;;;3.08;;
35456;SDS011;21575;51.538;-0.084;2022-09-09T02:11:05;9.60;;;3.30;;
35456;SDS011;21575;51.538;-0.084;2022-09-09T02:13:42;8.05;;;3.58;;
35456;SDS011;21575;51.538;-0.084;2022-09-09T02:18:53;10.32;;;4.47;;
35456;SDS011;21575;51.538;-0.084;2022-09-09T02:21:26;8.55;;;4.55;;
35456;SDS011;21575;51.538;-0.084;2022-09-09T02:23:53;13.23;;;5.28;;
35456;SDS011;21575;51.538;-0.084;2022-09-09T02:26:22;11.52;;;5.32;;
35456;SDS011;21575;51.538;-0.084;2022-09-09T02:28:50;12.18;;;5.32;;
35456;SDS011;21575;51.538;-0.084;2022-09-09T02:31:18;8.02;;;4.85;;
35456;SDS011;21575;51.538;-0.084;2022-09-09T02:33:48;14.43;;;5.28;;
35456;SDS011;21575;51.538;-0.084;2022-09-09T02:36:23;9.85;;;5.03;;
35456;SDS011;21575;51.538;-0.084;2022-09-09T02:38:51;11.52;;;5.22;;
35456;SDS011;21575;51.538;-0.084;2022-09-09T02:41:31;10.93;;;5.43;;
35456;SDS011;21575;51.538;-0.084;2022-09-09T02:43:59;13.07;;;5.20;;
35456;SDS011;21575;51.538;-0.084;2022-09-09T02:49:30;11.18;;;5.25;;
35456;SDS011;21575;51.538;-0.084;2022-09-09T02:57:52;13.75;;;6.50;;
35456;SDS011;21575;51.538;-0.084;2022-09-09T03:00:24;14.57;;;6.38;;
35456;SDS011;21575;51.538;-0.084;2022-09-09T03:02:52;13.63;;;5.70;;
35456;SDS011;21575;51.538;-0.084;2022-09-09T03:05:19;11.50;;;6.25;;
35456;SDS011;21575;51.538;-0.084;2022-09-09T03:07:45;12.27;;;4.93;;
35456;SDS011;21575;51.538;-0.084;2022-09-09T03:10:12;12.60;;;7.05;;
35456;SDS011;21575;51.538;-0.084;2022-09-09T03:12:38;14.27;;;5.85;;
35456;SDS011;21575;51.538;-0.084;2022-09-09T03:15:04;14.27;;;5.68;;
35456;SDS011;21575;51.538;-0.084;2022-09-09T03:17:31;11.73;;;4.78;;
35456;SDS011;21575;51.538;-0.084;2022-09-09T03:19:56;14.73;;;5.60;;
35456;SDS011;21575;51.538;-0.084;2022-09-09T03:22:23;12.32;;;5.05;;
35456;SDS011;21575;51.538;-0.084;2022-09-09T03:24:50;11.10;;;4.90;;
35456;SDS011;21575;51.538;-0.084;2022-09-09T03:27:16;10.60;;;5.28;;
35456;SDS011;21575;51.538;-0.084;2022-09-09T03:29:44;13.75;;;5.25;;
35456;SDS011;21575;51.538;-0.084;2022-09-09T03:32:10;16.70;;;5.65;;
35456;SDS011;21575;51.538;-0.084;2022-09-09T03:34:35;15.70;;;5.03;;
35456;SDS011;21575;51.538;-0.084;2022-09-09T03:37:04;11.80;;;5.55;;
35456;SDS011;21575;51.538;-0.084;2022-09-09T03:39:30;11.45;;;5.22;;
35456;SDS011;21575;51.538;-0.084;2022-09-09T03:41:56;9.55;;;5.32;;
35456;SDS011;21575;51.538;-0.084;2022-09-09T03:44:22;19.83;;;5.38;;
35456;SDS011;21575;51.538;-0.084;2022-09-09T03:46:47;10.85;;;5.13;;
35456;SDS011;21575;51.538;-0.084;2022-09-09T03:49:13;10.77;;;5.30;;
35456;SDS011;21575;51.538;-0.084;2022-09-09T03:51:39;14.95;;;5.20;;
35456;SDS011;21575;51.538;-0.084;2022-09-09T03:54:05;8.90;;;4.50;;
35456;SDS011;21575;51.538;-0.084;2022-09-09T03:56:33;14.65;;;6.07;;
35456;SDS011;21575;51.538;-0.084;2022-09-09T03:59:00;12.43;;;4.45;;
35456;SDS011;21575;51.538;-0.084;2022-09-09T04:01:26;10.32;;;5.05;;
35456;SDS011;21575;51.538;-0.084;2022-09-09T04:03:52;12.20;;;4.85;;
35456;SDS011;21575;51.538;-0.084;2022-09-09T04:06:19;10.75;;;4.90;;
35456;SDS011;21575;51.538;-0.084;2022-09-09T04:08:46;7.25;;;3.90;;
35456;SDS011;21575;51.538;-0.084;2022-09-09T04:11:14;9.50;;;4.38;;
35456;SDS011;21575;51.538;-0.084;2022-09-09T04:13:40;11.43;;;5.05;;
35456;SDS011;21575;51.538;-0.084;2022-09-09T04:16:07;8.95;;;4.38;;
35456;SDS011;21575;51.538;-0.084;2022-09-09T04:18:34;9.32;;;4.05;;
35456;SDS011;21575;51.538;-0.084;2022-09-09T04:21:00;9.52;;;4.18;;
35456;SDS011;21575;51.538;-0.084;2022-09-09T04:23:26;6.63;;;3.50;;
35456;SDS011;21575;51.538;-0.084;2022-09-09T04:25:54;9.55;;;4.50;;
35456;SDS011;21575;51.538;-0.084;2022-09-09T04:28:22;8.85;;;4.10;;
35456;SDS011;21575;51.538;-0.084;2022-09-09T04:30:49;8.13;;;4.00;;
35456;SDS011;21575;51.538;-0.084;2022-09-09T04:33:15;5.30;;;3.58;;
35456;SDS011;21575;51.538;-0.084;2022-09-09T04:35:46;7.35;;;3.63;;
35456;SDS011;21575;51.538;-0.084;2022-09-09T04:38:13;9.73;;;4.15;;
35456;SDS011;21575;51.538;-0.084;2022-09-09T04:40:43;11.73;;;5.07;;
35456;SDS011;21575;51.538;-0.084;2022-09-09T04:43:11;9.40;;;4.47;;
35456;SDS011;21575;51.538;-0.084;2022-09-09T04:45:37;12.48;;;5.28;;
35456;SDS011;21575;51.538;-0.084;2022-09-09T04:48:05;10.20;;;4.72;;
35456;SDS011;21575;51.538;-0.084;2022-09-09T04:50:31;7.35;;;3.90;;
35456;SDS011;21575;51.538;-0.084;2022-09-09T04:52:59;12.68;;;4.82;;
35456;SDS011;21575;51.538;-0.084;2022-09-09T04:55:26;10.88;;;4.20;;
35456;SDS011;21575;51.538;-0.084;2022-09-09T04:57:52;12.27;;;4.50;;
35456;SDS011;21575;51.538;-0.084;2022-09-09T05:00:17;5.70;;;3.83;;
35456;SDS011;21575;51.538;-0.084;2022-09-09T05:02:44;8.73;;;4.25;;
35456;SDS011;21575;51.538;-0.084;2022-09-09T05:05:09;11.02;;;4.57;;
35456;SDS011;21575;51.538;-0.084;2022-09-09T05:07:36;9.30;;;4.70;;
35456;SDS011;21575;51.538;-0.084;2022-09-09T05:10:02;5.82;;;4.07;;
35456;SDS011;21575;51.538;-0.084;2022-09-09T05:12:30;12.45;;;4.40;;
35456;SDS011;21575;51.538;-0.084;2022-09-09T05:14:56;7.35;;;3.63;;
35456;SDS011;21575;51.538;-0.084;2022-09-09T05:17:22;8.70;;;4.90;;
35456;SDS011;21575;51.538;-0.084;2022-09-09T05:19:48;6.85;;;4.20;;
35456;SDS011;21575;51.538;-0.084;2022-09-09T05:22:17;10.93;;;4.20;;
35456;SDS011;21575;51.538;-0.084;2022-09-09T05:24:48;8.57;;;5.22;;
35456;SDS011;21575;51.538;-0.084;2022-09-09T05:27:15;10.05;;;5.13;;
35456;SDS011;21575;51.538;-0.084;2022-09-09T05:29:45;14.60;;;6.70;;
35456;SDS011;21575;51.538;-0.084;2022-09-09T05:32:11;9.65;;;5.10;;
35456;SDS011;21575;51.538;-0.084;2022-09-09T05:34:38;8.40;;;4.60;;
35456;SDS011;21575;51.538;-0.084;2022-09-09T05:37:04;9.07;;;5.03;;
35456;SDS011;21575;51.538;-0.084;2022-09-09T05:39:29;13.40;;;5.43;;
35456;SDS011;21575;51.538;-0.084;2022-09-09T05:41:55;8.85;;;6.57;;
35456;SDS011;21575;51.538;-0.084;2022-09-09T05:44:21;9.57;;;4.70;;
35456;SDS011;21575;51.538;-0.084;2022-09-09T05:46:48;7.93;;;5.32;;
35456;SDS011;21575;51.538;-0.084;2022-09-09T05:49:14;16.65;;;7.00;;
35456;SDS011;21575;51.538;-0.084;2022-09-09T05:51:40;6.05;;;4.75;;
35456;SDS011;21575;51.538;-0.084;2022-09-09T05:54:07;9.38;;;4.50;;
35456;SDS011;21575;51.538;-0.084;2022-09-09T05:56:34;7.43;;;4.03;;
35456;SDS011;21575;51.538;-0.084;2022-09-09T05:58:59;9.85;;;4.85;;
35456;SDS011;21575;51.538;-0.084;2022-09-09T06:01:30;10.85;;;4.82;;
35456;SDS011;21575;51.538;-0.084;2022-09-09T06:03:57;10.95;;;4.63;;
35456;SDS011;21575;51.538;-0.084;2022-09-09T06:06:25;9.50;;;4.75;;
35456;SDS011;21575;51.538;-0.084;2022-09-09T06:08:53;6.68;;;4.43;;
35456;SDS011;21575;51.538;-0.084;2022-09-09T06:11:29;10.05;;;5.45;;
35456;SDS011;21575;51.538;-0.084;2022-09-09T06:13:56;9.13;;;4.70;;
35456;SDS011;21575;51.538;-0.084;2022-09-09T06:16:22;8.00;;;5.13;;
35456;SDS011;21575;51.538;-0.084;2022-09-09T06:18:49;9.63;;;5.20;;
35456;SDS011;21575;51.538;-0.084;2022-09-09T06:21:17;7.97;;;4.90;;
35456;SDS011;21575;51.538;-0.084;2022-09-09T06:23:45;9.55;;;5.18;;
35456;SDS011;21575;51.538;-0.084;2022-09-09T06:26:13;12.30;;;5.85;;
35456;SDS011;21575;51.538;-0.084;2022-09-09T06:28:39;6.97;;;4.90;;
35456;SDS011;21575;51.538;-0.084;2022-09-09T06:31:05;9.05;;;5.15;;
35456;SDS011;21575;51.538;-0.084;2022-09-09T06:33:36;8.52;;;4.28;;
35456;SDS011;21575;51.538;-0.084;2022-09-09T06:36:15;8.10;;;5.03;;
35456;SDS011;21575;51.538;-0.084;2022-09-09T06:38:46;14.27;;;5.50;;
35456;SDS011;21575;51.538;-0.084;2022-09-09T06:41:13;8.38;;;4.75;;
35456;SDS011;21575;51.538;-0.084;2022-09-09T06:43:41;10.15;;;5.53;;
35456;SDS011;21575;51.538;-0.084;2022-09-09T06:46:13;7.13;;;4.97;;
35456;SDS011;21575;51.538;-0.084;2022-09-09T06:48:41;9.77;;;5.38;;
35456;SDS011;21575;51.538;-0.084;2022-09-09T06:51:12;8.10;;;4.70;;
35456;SDS011;21575;51.538;-0.084;2022-09-09T06:53:41;9.80;;;5.93;;
35456;SDS011;21575;51.538;-0.084;2022-09-09T06:56:19;7.47;;;5.43;;
35456;SDS011;21575;51.538;-0.084;2022-09-09T06:58:49;9.27;;;6.18;;
35456;SDS011;21575;51.538;-0.084;2022-09-09T07:01:17;9.43;;;5.68;;
35456;SDS011;21575;51.538;-0.084;2022-09-09T07:03:48;11.57;;;6.00;;
35456;SDS011;21575;51.538;-0.084;2022-09-09T07:06:20;10.73;;;5.80;;
35456;SDS011;21575;51.538;-0.084;2022-09-09T07:08:57;10.77;;;6.05;;
35456;SDS011;21575;51.538;-0.084;2022-09-09T07:11:25;8.88;;;5.68;;
35456;SDS011;21575;51.538;-0.084;2022-09-09T07:13:53;8.98;;;6.13;;
35456;SDS011;21575;51.538;-0.084;2022-09-09T07:16:19;10.55;;;6.05;;
35456;SDS011;21575;51.538;-0.084;2022-09-09T07:18:48;11.68;;;5.47;;
35456;SDS011;21575;51.538;-0.084;2022-09-09T07:21:15;9.05;;;4.97;;
35456;SDS011;21575;51.538;-0.084;2022-09-09T07:23:42;7.45;;;4.63;;
35456;SDS011;21575;51.538;-0.084;2022-09-09T07:26:26;5.70;;;4.80;;
35456;SDS011;21575;51.538;-0.084;2022-09-09T07:28:54;8.00;;;4.93;;
35456;SDS011;21575;51.538;-0.084;2022-09-09T07:31:24;5.90;;;4.50;;
35456;SDS011;21575;51.538;-0.084;2022-09-09T07:33:52;6.05;;;5.18;;
35456;SDS011;21575;51.538;-0.084;2022-09-09T07:36:19;6.93;;;4.65;;
35456;SDS011;21575;51.538;-0.084;2022-09-09T07:38:48;4.85;;;4.38;;
35456;SDS011;21575;51.538;-0.084;2022-09-09T07:41:18;6.45;;;4.88;;
35456;SDS011;21575;51.538;-0.084;2022-09-09T07:46:16;6.25;;;4.05;;
35456;SDS011;21575;51.538;-0.084;2022-09-09T07:48:45;6.47;;;4.65;;
35456;SDS011;21575;51.538;-0.084;2022-09-09T07:51:15;7.15;;;4.35;;
35456;SDS011;21575;51.538;-0.084;2022-09-09T07:56:13;5.70;;;4.40;;
35456;SDS011;21575;51.538;-0.084;2022-09-09T07:58:42;5.53;;;3.72;;
35456;SDS011;21575;51.538;-0.084;2022-09-09T08:01:11;5.18;;;3.80;;
35456;SDS011;21575;51.538;-0.084;2022-09-09T08:03:39;7.97;;;5.22;;
35456;SDS011;21575;51.538;-0.084;2022-09-09T08:06:06;8.98;;;5.20;;
35456;SDS011;21575;51.538;-0.084;2022-09-09T08:08:34;6.75;;;4.82;;
35456;SDS011;21575;51.538;-0.084;2022-09-09T08:11:08;5.30;;;4.22;;
35456;SDS011;21575;51.538;-0.084;2022-09-09T08:13:36;7.97;;;5.05;;
35456;SDS011;21575;51.538;-0.084;2022-09-09T08:16:04;8.02;;;5.07;;
35456;SDS011;21575;51.538;-0.084;2022-09-09T08:18:40;7.50;;;4.85;;
35456;SDS011;21575;51.538;-0.084;2022-09-09T08:23:42;8.07;;;6.03;;
35456;SDS011;21575;51.538;-0.084;2022-09-09T08:26:11;6.97;;;4.97;;
35456;SDS011;21575;51.538;-0.084;2022-09-09T08:28:39;5.60;;;4.50;;
35456;SDS011;21575;51.538;-0.084;2022-09-09T08:31:19;5.45;;;4.93;;
35456;SDS011;21575;51.538;-0.084;2022-09-09T08:33:49;6.00;;;4.07;;
35456;SDS011;21575;51.538;-0.084;2022-09-09T08:36:17;7.30;;;5.07;;
35456;SDS011;21575;51.538;-0.084;2022-09-09T08:38:51;7.03;;;4.63;;
35456;SDS011;21575;51.538;-0.084;2022-09-09T08:41:27;7.43;;;4.95;;
35456;SDS011;21575;51.538;-0.084;2022-09-09T08:55:27;6.70;;;5.82;;
35456;SDS011;21575;51.538;-0.084;2022-09-09T08:58:39;7.75;;;6.20;;
35456;SDS011;21575;51.538;-0.084;2022-09-09T09:11:48;8.40;;;6.32;;
35456;SDS011;21575;51.538;-0.084;2022-09-09T09:14:23;9.15;;;5.88;;
35456;SDS011;21575;51.538;-0.084;2022-09-09T09:19:19;6.97;;;5.07;;
35456;SDS011;21575;51.538;-0.084;2022-09-09T09:21:50;8.10;;;5.63;;
35456;SDS011;21575;51.538;-0.084;2022-09-09T09:24:19;8.07;;;6.95;;
35456;SDS011;21575;51.538;-0.084;2022-09-09T09:26:47;8.00;;;6.72;;
35456;SDS011;21575;51.538;-0.084;2022-09-09T09:29:14;9.10;;;6.78;;
35456;SDS011;21575;51.538;-0.084;2022-09-09T09:31:52;11.90;;;7.80;;
35456;SDS011;21575;51.538;-0.084;2022-09-09T09:34:20;9.27;;;7.35;;
35456;SDS011;21575;51.538;-0.084;2022-09-09T09:36:59;9.80;;;7.47;;
35456;SDS011;21575;51.538;-0.084;2022-09-09T09:39:29;9.30;;;7.95;;
35456;SDS011;21575;51.538;-0.084;2022-09-09T09:42:07;9.27;;;7.25;;
35456;SDS011;21575;51.538;-0.084;2022-09-09T09:44:38;12.75;;;7.78;;
35456;SDS011;21575;51.538;-0.084;2022-09-09T09:47:20;9.07;;;7.60;;
35456;SDS011;21575;51.538;-0.084;2022-09-09T09:49:52;11.43;;;8.60;;
35456;SDS011;21575;51.538;-0.084;2022-09-09T09:52:25;9.52;;;7.40;;
35456;SDS011;21575;51.538;-0.084;2022-09-09T09:54:53;10.23;;;7.65;;
35456;SDS011;21575;51.538;-0.084;2022-09-09T09:57:24;10.02;;;7.63;;
35456;SDS011;21575;51.538;-0.084;2022-09-09T10:00:14;9.20;;;7.50;;
35456;SDS011;21575;51.538;-0.084;2022-09-09T10:02:42;11.65;;;8.25;;
35456;SDS011;21575;51.538;-0.084;2022-09-09T10:05:16;12.13;;;9.15;;
35456;SDS011;21575;51.538;-0.084;2022-09-09T10:07:47;9.45;;;8.10;;
35456;SDS011;21575;51.538;-0.084;2022-09-09T10:13:21;13.57;;;8.82;;
35456;SDS011;21575;51.538;-0.084;2022-09-09T10:16:00;12.13;;;7.97;;
35456;SDS011;21575;51.538;-0.084;2022-09-09T10:21:32;12.68;;;9.18;;
35456;SDS011;21575;51.538;-0.084;2022-09-09T10:35:30;9.80;;;8.65;;
35456;SDS011;21575;51.538;-0.084;2022-09-09T10:38:14;10.95;;;8.48;;
35456;SDS011;21575;51.538;-0.084;2022-09-09T10:43:31;11.95;;;7.53;;
35456;SDS011;21575;51.538;-0.084;2022-09-09T10:46:33;14.43;;;9.15;;
35456;SDS011;21575;51.538;-0.084;2022-09-09T10:49:23;10.05;;;7.93;;
35456;SDS011;21575;51.538;-0.084;2022-09-09T10:52:27;13.55;;;9.00;;
35456;SDS011;21575;51.538;-0.084;2022-09-09T10:55:09;12.10;;;9.10;;
35456;SDS011;21575;51.538;-0.084;2022-09-09T10:57:39;11.05;;;8.52;;
35456;SDS011;21575;51.538;-0.084;2022-09-09T11:02:58;11.15;;;9.65;;
35456;SDS011;21575;51.538;-0.084;2022-09-09T11:13:35;10.35;;;7.85;;
35456;SDS011;21575;51.538;-0.084;2022-09-09T11:25:16;9.18;;;8.07;;
35456;SDS011;21575;51.538;-0.084;2022-09-09T11:30:42;8.80;;;7.72;;
35456;SDS011;21575;51.538;-0.084;2022-09-09T11:33:23;10.98;;;8.18;;
35456;SDS011;21575;51.538;-0.084;2022-09-09T11:38:52;8.07;;;6.70;;
35456;SDS011;21575;51.538;-0.084;2022-09-09T11:41:36;8.23;;;6.68;;
35456;SDS011;21575;51.538;-0.084;2022-09-09T11:44:12;8.50;;;6.40;;
35456;SDS011;21575;51.538;-0.084;2022-09-09T11:46:44;7.30;;;5.97;;
35456;SDS011;21575;51.538;-0.084;2022-09-09T11:52:20;6.85;;;6.15;;
35456;SDS011;21575;51.538;-0.084;2022-09-09T11:55:08;5.82;;;5.22;;
35456;SDS011;21575;51.538;-0.084;2022-09-09T11:57:56;6.57;;;5.97;;
35456;SDS011;21575;51.538;-0.084;2022-09-09T12:00:31;7.90;;;5.38;;
35456;SDS011;21575;51.538;-0.084;2022-09-09T12:03:02;6.90;;;5.72;;
35456;SDS011;21575;51.538;-0.084;2022-09-09T12:05:48;5.00;;;4.45;;
35456;SDS011;21575;51.538;-0.084;2022-09-09T12:08:16;6.82;;;5.22;;
35456;SDS011;21575;51.538;-0.084;2022-09-09T12:10:56;5.20;;;4.75;;
35456;SDS011;21575;51.538;-0.084;2022-09-09T12:13:25;5.97;;;4.40;;
35456;SDS011;21575;51.538;-0.084;2022-09-09T12:15:52;6.80;;;4.80;;
35456;SDS011;21575;51.538;-0.084;2022-09-09T12:18:22;4.43;;;4.03;;
35456;SDS011;21575;51.538;-0.084;2022-09-09T12:20:57;4.28;;;3.88;;
35456;SDS011;21575;51.538;-0.084;2022-09-09T12:29:05;6.70;;;4.43;;
35456;SDS011;21575;51.538;-0.084;2022-09-09T12:32:02;4.47;;;4.03;;
35456;SDS011;21575;51.538;-0.084;2022-09-09T12:34:42;6.68;;;4.93;;
35456;SDS011;21575;51.538;-0.084;2022-09-09T12:40:01;5.45;;;4.22;;
35456;SDS011;21575;51.538;-0.084;2022-09-09T12:42:31;4.95;;;3.95;;
35456;SDS011;21575;51.538;-0.084;2022-09-09T12:45:01;6.50;;;4.03;;
35456;SDS011;21575;51.538;-0.084;2022-09-09T12:47:39;4.82;;;3.83;;
35456;SDS011;21575;51.538;-0.084;2022-09-09T12:50:19;5.15;;;3.83;;
35456;SDS011;21575;51.538;-0.084;2022-09-09T12:52:46;5.30;;;4.00;;
35456;SDS011;21575;51.538;-0.084;2022-09-09T12:55:18;6.57;;;4.80;;
35456;SDS011;21575;51.538;-0.084;2022-09-09T12:57:58;4.43;;;4.05;;
35456;SDS011;21575;51.538;-0.084;2022-09-09T13:00:26;5.38;;;4.45;;
35456;SDS011;21575;51.538;-0.084;2022-09-09T13:02:57;4.43;;;3.33;;
35456;SDS011;21575;51.538;-0.084;2022-09-09T13:05:34;4.90;;;3.70;;
35456;SDS011;21575;51.538;-0.084;2022-09-09T13:08:11;5.47;;;4.40;;
35456;SDS011;21575;51.538;-0.084;2022-09-09T13:13:36;3.85;;;3.42;;
35456;SDS011;21575;51.538;-0.084;2022-09-09T13:16:04;5.07;;;3.40;;
35456;SDS011;21575;51.538;-0.084;2022-09-09T13:18:36;5.05;;;3.42;;
35456;SDS011;21575;51.538;-0.084;2022-09-09T13:21:05;3.75;;;3.35;;
35456;SDS011;21575;51.538;-0.084;2022-09-09T13:23:34;3.72;;;3.05;;
35456;SDS011;21575;51.538;-0.084;2022-09-09T13:26:21;3.65;;;3.03;;
35456;SDS011;21575;51.538;-0.084;2022-09-09T13:28:51;4.32;;;3.80;;
35456;SDS011;21575;51.538;-0.084;2022-09-09T13:31:29;4.72;;;3.17;;
35456;SDS011;21575;51.538;-0.084;2022-09-09T13:33:57;3.40;;;2.80;;
35456;SDS011;21575;51.538;-0.084;2022-09-09T13:36:27;2.95;;;2.70;;
35456;SDS011;21575;51.538;-0.084;2022-09-09T13:38:59;5.88;;;3.25;;
35456;SDS011;21575;51.538;-0.084;2022-09-09T13:41:28;3.25;;;2.63;;
35456;SDS011;21575;51.538;-0.084;2022-09-09T13:43:57;3.80;;;2.42;;
35456;SDS011;21575;51.538;-0.084;2022-09-09T13:49:16;3.30;;;2.17;;
35456;SDS011;21575;51.538;-0.084;2022-09-09T13:51:46;3.03;;;2.15;;
35456;SDS011;21575;51.538;-0.084;2022-09-09T13:54:16;2.22;;;1.95;;
35456;SDS011;21575;51.538;-0.084;2022-09-09T13:56:43;2.65;;;2.25;;
35456;SDS011;21575;51.538;-0.084;2022-09-09T13:59:16;2.60;;;2.28;;
35456;SDS011;21575;51.538;-0.084;2022-09-09T14:01:44;2.78;;;1.88;;
35456;SDS011;21575;51.538;-0.084;2022-09-09T14:04:10;4.18;;;2.35;;
35456;SDS011;21575;51.538;-0.084;2022-09-09T14:06:36;2.75;;;1.88;;
35456;SDS011;21575;51.538;-0.084;2022-09-09T14:09:03;2.92;;;2.13;;
35456;SDS011;21575;51.538;-0.084;2022-09-09T14:11:29;4.88;;;2.85;;
35456;SDS011;21575;51.538;-0.084;2022-09-09T14:13:54;4.03;;;2.80;;
35456;SDS011;21575;51.538;-0.084;2022-09-09T14:16:21;3.60;;;2.20;;
35456;SDS011;21575;51.538;-0.084;2022-09-09T14:18:47;3.47;;;2.80;;
35456;SDS011;21575;51.538;-0.084;2022-09-09T14:21:13;2.35;;;2.10;;
35456;SDS011;21575;51.538;-0.084;2022-09-09T14:23:40;2.72;;;2.35;;
35456;SDS011;21575;51.538;-0.084;2022-09-09T14:26:06;4.18;;;2.40;;
35456;SDS011;21575;51.538;-0.084;2022-09-09T14:28:33;5.43;;;2.42;;
35456;SDS011;21575;51.538;-0.084;2022-09-09T14:31:00;2.90;;;1.77;;
35456;SDS011;21575;51.538;-0.084;2022-09-09T14:33:27;3.13;;;2.13;;
35456;SDS011;21575;51.538;-0.084;2022-09-09T14:35:56;3.65;;;1.98;;
35456;SDS011;21575;51.538;-0.084;2022-09-09T14:38:29;3.03;;;2.47;;
35456;SDS011;21575;51.538;-0.084;2022-09-09T14:41:03;2.55;;;2.05;;
35456;SDS011;21575;51.538;-0.084;2022-09-09T14:43:29;5.13;;;2.92;;
35456;SDS011;21575;51.538;-0.084;2022-09-09T14:45:57;3.15;;;2.50;;
35456;SDS011;21575;51.538;-0.084;2022-09-09T14:48:33;4.30;;;2.20;;
35456;SDS011;21575;51.538;-0.084;2022-09-09T14:51:13;3.33;;;1.80;;
35456;SDS011;21575;51.538;-0.084;2022-09-09T14:53:47;5.35;;;2.33;;
35456;SDS011;21575;51.538;-0.084;2022-09-09T14:56:14;3.60;;;2.00;;
35456;SDS011;21575;51.538;-0.084;2022-09-09T14:58:42;3.10;;;2.25;;
35456;SDS011;21575;51.538;-0.084;2022-09-09T15:01:09;2.97;;;2.67;;
35456;SDS011;21575;51.538;-0.084;2022-09-09T15:03:40;4.05;;;1.75;;
35456;SDS011;21575;51.538;-0.084;2022-09-09T15:06:11;6.97;;;2.47;;
35456;SDS011;21575;51.538;-0.084;2022-09-09T15:08:39;3.83;;;2.13;;
35456;SDS011;21575;51.538;-0.084;2022-09-09T15:11:06;3.33;;;2.63;;
35456;SDS011;21575;51.538;-0.084;2022-09-09T15:13:33;2.85;;;2.28;;
35456;SDS011;21575;51.538;-0.084;2022-09-09T15:16:18;3.63;;;2.92;;
35456;SDS011;21575;51.538;-0.084;2022-09-09T15:18:44;4.18;;;2.30;;
35456;SDS011;21575;51.538;-0.084;2022-09-09T15:21:18;3.60;;;2.20;;
35456;SDS011;21575;51.538;-0.084;2022-09-09T15:23:45;2.55;;;2.15;;
35456;SDS011;21575;51.538;-0.084;2022-09-09T15:26:12;3.55;;;3.13;;
35456;SDS011;21575;51.538;-0.084;2022-09-09T15:28:40;3.67;;;3.00;;
35456;SDS011;21575;51.538;-0.084;2022-09-09T15:31:12;3.90;;;3.00;;
35456;SDS011;21575;51.538;-0.084;2022-09-09T15:33:40;3.63;;;2.85;;
35456;SDS011;21575;51.538;-0.084;2022-09-09T15:36:41;3.83;;;3.10;;
35456;SDS011;21575;51.538;-0.084;2022-09-09T15:39:03;3.28;;;2.97;;
35456;SDS011;21575;51.538;-0.084;2022-09-09T15:41:30;2.83;;;2.40;;
35456;SDS011;21575;51.538;-0.084;2022-09-09T15:43:57;2.42;;;2.22;;
35456;SDS011;21575;51.538;-0.084;2022-09-09T15:46:27;2.45;;;2.25;;
35456;SDS011;21575;51.538;-0.084;2022-09-09T15:49:19;3.60;;;2.58;;
35456;SDS011;21575;51.538;-0.084;2022-09-09T15:51:45;3.50;;;2.60;;
35456;SDS011;21575;51.538;-0.084;2022-09-09T15:54:13;3.10;;;2.80;;
35456;SDS011;21575;51.538;-0.084;2022-09-09T15:56:42;3.42;;;2.47;;
35456;SDS011;21575;51.538;-0.084;2022-09-09T15:59:08;4.72;;;3.72;;
35456;SDS011;21575;51.538;-0.084;2022-09-09T16:01:34;4.28;;;3.20;;
35456;SDS011;21575;51.538;-0.084;2022-09-09T16:04:00;3.33;;;2.92;;
35456;SDS011;21575;51.538;-0.084;2022-09-09T16:06:27;4.68;;;2.97;;
35456;SDS011;21575;51.538;-0.084;2022-09-09T16:08:54;3.30;;;2.97;;
35456;SDS011;21575;51.538;-0.084;2022-09-09T16:11:22;2.55;;;2.35;;
35456;SDS011;21575;51.538;-0.084;2022-09-09T16:13:51;2.83;;;2.45;;
35456;SDS011;21575;51.538;-0.084;2022-09-09T16:16:20;3.25;;;2.17;;
35456;SDS011;21575;51.538;-0.084;2022-09-09T16:18:48;2.42;;;2.10;;
35456;SDS011;21575;51.538;-0.084;2022-09-09T16:21:24;2.67;;;2.50;;
35456;SDS011;21575;51.538;-0.084;2022-09-09T16:23:54;6.00;;;2.75;;
35456;SDS011;21575;51.538;-0.084;2022-09-09T16:26:20;5.05;;;4.25;;
35456;SDS011;21575;51.538;-0.084;2022-09-09T16:28:47;4.82;;;3.90;;
35456;SDS011;21575;51.538;-0.084;2022-09-09T16:31:14;5.00;;;3.50;;
35456;SDS011;21575;51.538;-0.084;2022-09-09T16:33:47;4.13;;;2.90;;
35456;SDS011;21575;51.538;-0.084;2022-09-09T16:36:16;4.50;;;2.40;;
35456;SDS011;21575;51.538;-0.084;2022-09-09T16:38:43;5.80;;;3.80;;
35456;SDS011;21575;51.538;-0.084;2022-09-09T16:41:10;3.38;;;2.60;;
35456;SDS011;21575;51.538;-0.084;2022-09-09T16:43:37;3.22;;;2.40;;
35456;SDS011;21575;51.538;-0.084;2022-09-09T16:46:09;4.00;;;2.75;;
35456;SDS011;21575;51.538;-0.084;2022-09-09T16:48:44;3.45;;;2.72;;
35456;SDS011;21575;51.538;-0.084;2022-09-09T16:51:20;3.40;;;2.55;;
35456;SDS011;21575;51.538;-0.084;2022-09-09T16:53:49;3.45;;;2.95;;
35456;SDS011;21575;51.538;-0.084;2022-09-09T16:56:16;3.67;;;2.95;;
35456;SDS011;21575;51.538;-0.084;2022-09-09T16:58:48;4.18;;;3.78;;
35456;SDS011;21575;51.538;-0.084;2022-09-09T17:01:15;3.50;;;2.80;;
35456;SDS011;21575;51.538;-0.084;2022-09-09T17:03:41;4.57;;;2.88;;
35456;SDS011;21575;51.538;-0.084;2022-09-09T17:06:11;4.75;;;2.60;;
35456;SDS011;21575;51.538;-0.084;2022-09-09T17:08:38;3.55;;;2.70;;
35456;SDS011;21575;51.538;-0.084;2022-09-09T17:11:10;4.63;;;3.90;;